Ash Grove, MO (65604)

8:55 PM CDT on March 29, 2017 (GMT -0500)
West of Ash Grove | | Change Station
Active Advisory: Tornado Watch

Elev 1027 ft 37.34 °N, 93.60 °W | Updated 1 minute ago

Partly Cloudy
Partly Cloudy
65.7 °F
Feels Like 65.7 °F
N
4.0
Wind Variable Wind from SSW
Gusts 5.0 mph

Today
High -- | Low -- °F
--% Chance of Precip.
Yesterday
High -- | Low -- °F
Precip. -- in
Pressure 29.64 in
Visibility 10.0 miles
Clouds Clear
Dew Point 59 °F
Humidity 79%
Rainfall 0.00 in
Snow Depth Not available.
7:03 AM 7:34 PM
Waxing Crescent, 5% visible
METAR KSGF 300152Z 18009KT 10SM CLR 18/14 A2965 RMK AO2 LTG DSNT E SLP035 T01780144
Pressure 29.64 in
Visibility 10.0 miles
Clouds Clear
Dew Point 59 °F
Humidity 79%
Rainfall 0.00 in
Snow Depth Not available.
7:03 AM 7:34 PM
Waxing Crescent, 5% visible
METAR KSGF 300152Z 18009KT 10SM CLR 18/14 A2965 RMK AO2 LTG DSNT E SLP035 T01780144

Get Your Daily Forecast Email!

Thanks for signing up!

Be on the lookout for a verification email in your inbox.

You'll start receiving severe weather alerts in your inbox..

×

10-Day Weather Forecast

Almanac

Astronomy

Mar. 29, 2017 Rise Set
Actual Time
Civil Twilight
Nautical Twilight
Astronomical Twilight
Moon
Length of Visible Light
Length of Day
Tomorrow will be .
, % of the Moon is Illuminated

Today's Extremes

State Highs State Lows

Community

WunderPhotos

Upload Photos

1,962,540 photos uploaded!

WunderBlog® & News

Nearby

Air Quality

  Air Quality AQ Index Pollutant
Not available.

Snow Depth

Station Depth Elevation

Earthquake Activity

City Distance Mag. Time & Date
Minimum magnitude displayed is 2.5.

Earthquake Activity

City Distance Mag. Time & Date
Minimum magnitude displayed is 2.5.

Coastal Water Temperatures

Place Temperature

Stations

Nearby Weather Stations

Station Location Temp. Windchill Dew Point Humidity Wind Precip. Elev Updated Type
                   

Watches & Warnings

Tornado Watch
Issued: 8:43 PM CDT Mar. 29, 2017 – National Weather Service

Tornado Watch 99 remains in effect until 1100 PM CDT for the
following locations


MO
. Missouri counties included are

Barry Benton Camden
Cedar Christian Dade
Dallas Dent Douglas
Greene Henry Hickory
Howell Johnson Laclede
Lawrence Maries Miller
Morgan Oregon Ozark
Pettis Phelps Polk
Pulaski St. Clair Shannon
stone Taney Texas
Webster Wright